Time;durP1;ratioP1;P1;durP2;ratioP2;P2;SDS_P1;SDS_P2;PMS_P1;PMS_P2;Temp;Humidity;BMP_temperature;BMP_pressure;BME280_temperature;BME280_humidity;BME280_pressure;Samples;Min_cycle;Max_cycle;Signal;HPM_P1;HPM_P2
2023/05/22 00:01:43;;;;;;;3.28;1.70;;;15.70;99.90;;;;;;5068151;28;20064;-79
2023/05/22 00:04:09;;;;;;;3.38;2.53;;;16.10;99.90;;;;;;5067384;28;20052;-79
2023/05/22 00:06:35;;;;;;;2.70;1.67;;;15.90;99.90;;;;;;5066652;28;20050;-78
2023/05/22 00:09:02;;;;;;;1.75;1.23;;;15.90;99.90;;;;;;5067176;28;20384;-79
2023/05/22 00:11:27;;;;;;;1.85;1.60;;;16.00;99.90;;;;;;5065966;28;20080;-78
2023/05/22 00:13:53;;;;;;;1.65;0.90;;;16.00;99.90;;;;;;5066161;28;20653;-79
2023/05/22 00:16:19;;;;;;;1.08;0.98;;;16.20;99.90;;;;;;5068465;28;20095;-80
2023/05/22 00:18:44;;;;;;;1.63;1.17;;;16.00;99.90;;;;;;5068605;28;20052;-78
2023/05/22 00:21:10;;;;;;;4.30;0.50;;;16.00;99.90;;;;;;5066134;28;20055;-78
2023/05/22 00:23:36;;;;;;;1.42;1.13;;;16.00;99.90;;;;;;5066312;28;20410;-79
2023/05/22 00:26:02;;;;;;;1.05;0.75;;;15.90;99.90;;;;;;5069411;28;20066;-80
2023/05/22 00:28:27;;;;;;;0.32;0.32;;;15.80;99.90;;;;;;5069649;28;20052;-80
2023/05/22 00:30:53;;;;;;;0.47;0.32;;;15.80;99.90;;;;;;5068854;28;20044;-78
2023/05/22 00:33:19;;;;;;;1.85;1.55;;;15.70;99.90;;;;;;5066266;28;20041;-80
2023/05/22 00:35:44;;;;;;;1.77;1.63;;;15.70;99.90;;;;;;5065812;28;20508;-78
2023/05/22 00:38:36;;;;;;;2.35;1.70;;;15.70;99.90;;;;;;5065838;28;20040;-79
2023/05/22 00:41:04;;;;;;;0.73;0.63;;;15.60;99.90;;;;;;5066047;28;20106;-78
2023/05/22 00:43:30;;;;;;;2.60;0.95;;;15.50;99.90;;;;;;5068181;28;20094;-79
2023/05/22 00:45:56;;;;;;;0.63;0.40;;;15.70;99.90;;;;;;5068082;28;20041;-79
2023/05/22 00:48:23;;;;;;;2.05;1.40;;;15.50;99.90;;;;;;5065968;28;20045;-79
2023/05/22 00:50:50;;;;;;;4.07;1.98;;;15.60;99.90;;;;;;5068679;28;20044;-78
2023/05/22 00:53:17;;;;;;;2.78;1.08;;;15.70;99.90;;;;;;5066957;28;20044;-79
2023/05/22 00:55:44;;;;;;;3.50;1.30;;;15.90;99.90;;;;;;5068304;28;20106;-79
2023/05/22 00:58:14;;;;;;;3.60;1.35;;;15.80;99.90;;;;;;5067686;28;20434;-79
2023/05/22 01:00:41;;;;;;;1.23;0.93;;;15.80;99.90;;;;;;5047779;28;20059;-78
2023/05/22 01:03:08;;;;;;;1.23;0.80;;;15.90;99.90;;;;;;5067804;28;20439;-79
2023/05/22 01:05:35;;;;;;;2.40;2.15;;;15.70;99.90;;;;;;5064531;28;20367;-80
2023/05/22 01:08:01;;;;;;;0.40;0.40;;;15.60;99.90;;;;;;5068152;28;20052;-79
2023/05/22 01:10:27;;;;;;;0.88;0.65;;;15.60;99.90;;;;;;5068065;28;20059;-79
2023/05/22 01:13:16;;;;;;;2.03;1.58;;;15.60;99.90;;;;;;5067169;28;20048;-79
2023/05/22 01:15:41;;;;;;;0.43;0.40;;;16.40;99.90;;;;;;5066009;28;20604;-79
2023/05/22 01:18:18;;;;;;;1.02;0.95;;;15.60;99.90;;;;;;5067791;28;20044;-79
2023/05/22 01:21:11;;;;;;;5.88;3.75;;;15.50;99.90;;;;;;5065517;28;20040;-79
2023/05/22 01:23:45;;;;;;;3.38;2.03;;;15.60;99.90;;;;;;5067640;28;20048;-79
2023/05/22 01:26:37;;;;;;;1.40;1.30;;;15.60;99.90;;;;;;5066616;28;20052;-79
2023/05/22 01:29:02;;;;;;;0.77;0.75;;;15.60;99.90;;;;;;5067381;28;20084;-79
2023/05/22 01:31:31;;;;;;;1.23;1.13;;;15.50;99.90;;;;;;5066086;28;20095;-79
2023/05/22 01:33:59;;;;;;;1.55;0.75;;;15.50;99.90;;;;;;5065996;28;20051;-79
2023/05/22 01:36:30;;;;;;;5.32;1.63;;;15.50;99.90;;;;;;5065673;28;20529;-79
2023/05/22 01:39:00;;;;;;;1.20;1.10;;;15.50;99.90;;;;;;5064667;28;20048;-78
2023/05/22 01:41:28;;;;;;;0.75;0.63;;;15.50;99.90;;;;;;5065309;28;20048;-79
2023/05/22 01:43:53;;;;;;;2.03;1.20;;;15.50;99.90;;;;;;5065112;28;20076;-78
2023/05/22 01:46:19;;;;;;;1.38;1.10;;;15.40;99.90;;;;;;5065325;28;20048;-80
2023/05/22 01:48:44;;;;;;;0.50;0.50;;;15.60;99.90;;;;;;5063139;28;20044;-78
2023/05/22 01:51:38;;;;;;;1.65;0.50;;;15.50;99.90;;;;;;5065335;28;20083;-79
2023/05/22 01:54:23;;;;;;;0.45;0.45;;;15.50;99.90;;;;;;5065830;28;20056;-79
2023/05/22 01:57:07;;;;;;;1.95;1.13;;;15.40;99.90;;;;;;5069062;28;20053;-79
2023/05/22 01:59:48;;;;;;;2.03;1.02;;;15.50;99.90;;;;;;5069366;28;20049;-79
2023/05/22 02:02:19;;;;;;;1.45;0.60;;;15.40;99.90;;;;;;5068828;28;20143;-79
2023/05/22 02:04:50;;;;;;;0.55;0.55;;;15.50;99.90;;;;;;5068338;28;20123;-80
2023/05/22 02:07:19;;;;;;;2.10;1.92;;;15.40;99.90;;;;;;5065097;28;20048;-79
2023/05/22 02:09:46;;;;;;;4.97;2.65;;;15.80;99.90;;;;;;5063668;28;20162;-79
2023/05/22 02:12:12;;;;;;;7.47;2.25;;;15.40;99.90;;;;;;5066077;28;20075;-78
2023/05/22 02:14:38;;;;;;;1.83;1.60;;;15.40;99.90;;;;;;5066721;28;20353;-79
2023/05/22 02:17:04;;;;;;;1.15;0.93;;;15.40;99.90;;;;;;5069244;28;20083;-80
2023/05/22 02:19:32;;;;;;;4.90;1.55;;;15.40;99.90;;;;;;5070915;28;20037;-79
2023/05/22 02:21:58;;;;;;;2.95;1.23;;;15.40;99.90;;;;;;5069675;28;20044;-79
2023/05/22 02:24:24;;;;;;;2.33;1.58;;;15.50;99.90;;;;;;5069983;28;20047;-79
2023/05/22 02:26:50;;;;;;;3.75;1.45;;;15.50;99.90;;;;;;5069641;28;20041;-79
2023/05/22 02:29:15;;;;;;;0.95;0.88;;;15.50;99.90;;;;;;5068240;28;20483;-78
2023/05/22 02:31:41;;;;;;;3.90;1.38;;;15.40;99.90;;;;;;5068635;28;20531;-78
2023/05/22 02:34:06;;;;;;;1.15;1.05;;;15.50;99.90;;;;;;5069059;28;20059;-79
2023/05/22 02:36:32;;;;;;;3.35;2.17;;;15.60;99.90;;;;;;5072371;28;20037;-79
2023/05/22 02:38:58;;;;;;;1.45;0.82;;;15.50;99.90;;;;;;5070898;28;20044;-79
2023/05/22 02:41:24;;;;;;;1.42;1.23;;;15.60;99.90;;;;;;5068154;28;20055;-79
2023/05/22 02:43:50;;;;;;;0.63;0.47;;;15.50;99.90;;;;;;5071521;28;20382;-79
2023/05/22 02:46:15;;;;;;;0.60;0.55;;;15.50;99.90;;;;;;5071568;28;20040;-79
2023/05/22 02:48:41;;;;;;;1.95;0.60;;;15.50;99.90;;;;;;5071686;28;20403;-79
2023/05/22 02:51:07;;;;;;;4.22;2.05;;;15.40;99.90;;;;;;5072373;28;20131;-79
2023/05/22 02:53:34;;;;;;;0.75;0.63;;;15.50;99.90;;;;;;5073531;28;20560;-79
2023/05/22 02:56:00;;;;;;;2.67;0.57;;;15.50;99.90;;;;;;5072235;28;20068;-79
2023/05/22 02:58:25;;;;;;;0.65;0.47;;;15.40;99.90;;;;;;5071381;28;20118;-79
2023/05/22 03:00:52;;;;;;;2.72;1.60;;;15.30;99.90;;;;;;5069500;28;20048;-78
2023/05/22 03:03:18;;;;;;;1.70;1.30;;;15.30;99.90;;;;;;5069468;28;20520;-79
2023/05/22 03:05:44;;;;;;;3.22;1.73;;;15.40;99.90;;;;;;5069934;28;20072;-79
2023/05/22 03:08:10;;;;;;;3.13;2.08;;;15.40;99.90;;;;;;5071162;28;20057;-79
2023/05/22 03:10:37;;;;;;;11.63;3.10;;;15.40;99.90;;;;;;5074458;28;20475;-79
2023/05/22 03:13:02;;;;;;;1.90;1.02;;;15.40;99.90;;;;;;5068909;28;20097;-78
2023/05/22 03:15:28;;;;;;;2.00;1.25;;;15.40;99.90;;;;;;5068455;28;20133;-79
2023/05/22 03:17:53;;;;;;;1.17;0.93;;;15.40;99.90;;;;;;5068629;28;20045;-78
2023/05/22 03:20:19;;;;;;;4.03;2.63;;;15.50;99.90;;;;;;5068247;28;20052;-78
2023/05/22 03:22:45;;;;;;;1.33;1.13;;;15.40;99.90;;;;;;5066832;28;20406;-78
2023/05/22 03:25:10;;;;;;;2.10;1.90;;;15.50;99.90;;;;;;5070449;28;20105;-80
2023/05/22 03:27:39;;;;;;;1.48;1.27;;;15.50;99.90;;;;;;5072800;28;20043;-79
2023/05/22 03:30:06;;;;;;;1.77;1.58;;;15.50;99.90;;;;;;5067557;28;20044;-79
2023/05/22 03:32:35;;;;;;;2.70;2.00;;;15.50;99.90;;;;;;5066930;28;20079;-79
2023/05/22 03:35:01;;;;;;;1.77;1.52;;;15.60;99.90;;;;;;5067923;28;20045;-79
2023/05/22 03:37:27;;;;;;;3.85;1.65;;;15.60;99.90;;;;;;5067853;28;20059;-79
2023/05/22 03:39:52;;;;;;;2.88;0.73;;;15.60;99.90;;;;;;5067745;28;20051;-79
2023/05/22 03:42:18;;;;;;;2.50;1.80;;;15.60;99.90;;;;;;5068025;28;20407;-79
2023/05/22 03:44:44;;;;;;;5.68;3.10;;;16.10;99.90;;;;;;5068147;28;20404;-79
2023/05/22 03:47:10;;;;;;;1.55;1.42;;;15.60;99.90;;;;;;5072029;28;20052;-78
2023/05/22 03:49:35;;;;;;;2.20;1.95;;;15.60;99.90;;;;;;5070841;28;20048;-79
2023/05/22 03:52:02;;;;;;;2.80;1.92;;;15.90;99.90;;;;;;5068460;28;20055;-79
2023/05/22 03:54:28;;;;;;;3.05;1.55;;;15.70;99.90;;;;;;5067879;28;20505;-78
2023/05/22 03:56:54;;;;;;;2.42;1.63;;;15.70;99.90;;;;;;5070510;28;20049;-79
2023/05/22 03:59:20;;;;;;;3.55;1.40;;;15.70;99.90;;;;;;5073315;28;20140;-79
2023/05/22 04:01:47;;;;;;;1.70;1.13;;;15.70;99.90;;;;;;5072441;28;20060;-79
2023/05/22 04:04:13;;;;;;;3.15;1.92;;;15.70;99.90;;;;;;5072129;28;20048;-79
2023/05/22 04:06:42;;;;;;;0.77;0.60;;;15.70;99.90;;;;;;5069878;28;20052;-79
2023/05/22 04:09:11;;;;;;;3.83;2.05;;;15.70;99.90;;;;;;5068232;28;20041;-79
2023/05/22 04:11:41;;;;;;;1.55;1.02;;;15.70;99.90;;;;;;5068204;28;20048;-78
2023/05/22 04:14:07;;;;;;;1.30;0.95;;;15.70;99.90;;;;;;5069584;28;20040;-79
2023/05/22 04:16:33;;;;;;;1.35;0.60;;;16.00;99.90;;;;;;5065877;28;20545;-78
2023/05/22 04:19:02;;;;;;;1.30;0.93;;;16.20;99.90;;;;;;5066236;28;20040;-79
2023/05/22 04:21:34;;;;;;;2.58;1.55;;;15.80;99.90;;;;;;5067543;28;20145;-78
2023/05/22 04:24:01;;;;;;;2.05;1.30;;;15.80;99.90;;;;;;5066350;28;20064;-78
2023/05/22 04:26:30;;;;;;;3.05;1.88;;;15.80;99.90;;;;;;5067429;28;20048;-79
2023/05/22 04:28:56;;;;;;;7.85;2.15;;;15.90;99.90;;;;;;5067572;28;20040;-79
2023/05/22 04:31:22;;;;;;;5.55;2.70;;;15.90;99.90;;;;;;5067692;28;20402;-79
2023/05/22 04:33:48;;;;;;;2.00;1.58;;;15.90;99.90;;;;;;5068095;28;20048;-79
2023/05/22 04:36:14;;;;;;;2.63;1.92;;;16.00;99.90;;;;;;5071041;28;20125;-79
2023/05/22 04:38:43;;;;;;;2.72;1.42;;;16.00;99.90;;;;;;5072040;28;20040;-79
2023/05/22 04:41:12;;;;;;;10.57;2.58;;;16.00;99.90;;;;;;5071304;28;20075;-79
2023/05/22 04:43:38;;;;;;;4.80;1.77;;;16.00;99.90;;;;;;5071898;28;20075;-79
2023/05/22 04:46:05;;;;;;;13.45;2.22;;;16.00;99.90;;;;;;5068168;28;20044;-79
2023/05/22 04:48:31;;;;;;;3.40;2.65;;;16.00;99.90;;;;;;5070558;28;20036;-79
2023/05/22 04:50:57;;;;;;;1.58;1.20;;;16.00;99.90;;;;;;5068292;28;20117;-79
2023/05/22 04:53:23;;;;;;;1.85;1.30;;;16.00;99.90;;;;;;5069698;28;20175;-79
2023/05/22 04:55:49;;;;;;;1.45;0.93;;;16.00;99.90;;;;;;5073625;28;20048;-79
2023/05/22 04:58:14;;;;;;;6.50;1.63;;;15.90;99.90;;;;;;5080129;28;20071;-80
2023/05/22 05:00:40;;;;;;;3.08;2.17;;;15.90;99.90;;;;;;5085150;28;20059;-79
2023/05/22 05:03:06;;;;;;;7.78;1.52;;;15.90;99.90;;;;;;5078567;28;20068;-79
2023/05/22 05:05:33;;;;;;;2.28;1.23;;;15.80;99.90;;;;;;5082075;28;20056;-80
2023/05/22 05:07:59;;;;;;;2.83;1.73;;;15.80;99.90;;;;;;5083650;28;20056;-79
2023/05/22 05:10:24;;;;;;;1.95;1.63;;;15.80;99.90;;;;;;5081063;28;20044;-79
2023/05/22 05:12:50;;;;;;;3.88;2.60;;;16.00;99.90;;;;;;5077494;28;20044;-79
2023/05/22 05:15:16;;;;;;;2.70;2.20;;;15.80;99.90;;;;;;5072370;28;20112;-80
2023/05/22 05:17:41;;;;;;;1.75;1.33;;;15.80;99.90;;;;;;5069958;28;20036;-79
2023/05/22 05:20:08;;;;;;;3.53;1.80;;;16.20;99.90;;;;;;5069251;28;20068;-79
2023/05/22 05:22:33;;;;;;;3.78;1.55;;;15.90;99.90;;;;;;5068871;28;20036;-79
2023/05/22 05:24:59;;;;;;;3.90;3.10;;;15.90;99.90;;;;;;5069938;28;20045;-79
2023/05/22 05:27:25;;;;;;;4.10;2.63;;;16.00;99.90;;;;;;5068015;28;20051;-78
2023/05/22 05:29:51;;;;;;;3.25;2.22;;;16.10;99.90;;;;;;5067960;28;20040;-80
2023/05/22 05:32:16;;;;;;;2.97;2.10;;;16.20;99.90;;;;;;5066536;28;20494;-79
2023/05/22 05:34:42;;;;;;;1.80;1.55;;;16.20;99.90;;;;;;5067346;28;20044;-78
2023/05/22 05:37:07;;;;;;;2.65;2.17;;;16.20;99.90;;;;;;5068888;28;20115;-79
2023/05/22 05:39:33;;;;;;;3.15;1.88;;;16.60;99.90;;;;;;5068299;28;20037;-80
2023/05/22 05:41:59;;;;;;;0.90;0.63;;;16.30;99.10;;;;;;5065742;28;20058;-79
2023/05/22 05:44:24;;;;;;;4.55;2.53;;;16.30;12.90;;;;;;5064110;28;20411;-79
2023/05/22 05:46:51;;;;;;;2.55;1.33;;;16.40;1.00;;;;;;5064657;28;20127;-79
2023/05/22 05:49:18;;;;;;;11.27;2.53;;;16.70;1.00;;;;;;5063135;28;20122;-79
2023/05/22 05:51:44;;;;;;;2.50;2.00;;;16.40;99.90;;;;;;5063141;28;20048;-78
2023/05/22 05:54:09;;;;;;;3.33;2.20;;;16.40;99.90;;;;;;5062407;28;20053;-78
2023/05/22 05:56:36;;;;;;;10.40;2.20;;;16.40;99.90;;;;;;5064637;28;20051;-79
2023/05/22 05:59:03;;;;;;;3.03;1.52;;;16.40;99.90;;;;;;5062941;28;20063;-78
2023/05/22 06:01:30;;;;;;;2.50;1.52;;;16.20;41.70;;;;;;5063992;28;20571;-79
2023/05/22 06:03:58;;;;;;;1.77;1.38;;;16.40;23.60;;;;;;5064657;28;20135;-78
2023/05/22 06:06:24;;;;;;;2.05;1.55;;;16.80;99.90;;;;;;5063509;28;20105;-79
2023/05/22 06:08:50;;;;;;;1.45;0.93;;;16.40;99.90;;;;;;5063598;28;20094;-79
2023/05/22 06:11:16;;;;;;;1.10;0.88;;;16.40;99.90;;;;;;5063213;28;20040;-78
2023/05/22 06:13:41;;;;;;;3.10;1.23;;;16.40;99.90;;;;;;5063902;28;20509;-79
2023/05/22 06:16:07;;;;;;;1.88;1.17;;;16.40;99.90;;;;;;5063685;28;20512;-77
2023/05/22 06:18:33;;;;;;;5.00;2.45;;;16.50;99.90;;;;;;5062575;28;20045;-78
2023/05/22 06:20:58;;;;;;;2.33;1.77;;;16.50;68.40;;;;;;5062521;28;20102;-78
2023/05/22 06:23:24;;;;;;;0.73;0.73;;;16.50;1.00;;;;;;5062243;28;20528;-78
2023/05/22 06:25:50;;;;;;;3.88;2.25;;;16.70;1.00;;;;;;5062041;28;20049;-78
2023/05/22 06:28:15;;;;;;;2.30;2.10;;;16.50;1.00;;;;;;5062311;28;20434;-78
2023/05/22 06:30:41;;;;;;;3.85;0.85;;;16.50;99.90;;;;;;5062428;28;20455;-79
2023/05/22 06:33:07;;;;;;;2.38;2.17;;;16.60;1.00;;;;;;5061421;28;20102;-78
2023/05/22 06:35:33;;;;;;;8.18;2.78;;;16.50;1.00;;;;;;5062749;28;20052;-79
2023/05/22 06:37:58;;;;;;;5.15;0.95;;;16.60;1.00;;;;;;5065489;28;20231;-79
2023/05/22 06:40:24;;;;;;;3.42;0.73;;;16.50;99.90;;;;;;5066087;28;20080;-79
2023/05/22 06:42:51;;;;;;;3.25;1.50;;;16.60;99.90;;;;;;5065882;28;20053;-79
2023/05/22 06:45:18;;;;;;;1.77;1.45;;;16.50;99.90;;;;;;5066440;28;20080;-79
2023/05/22 06:47:44;;;;;;;0.70;0.70;;;16.60;99.90;;;;;;5063111;28;20094;-79
2023/05/22 06:50:10;;;;;;;1.60;1.27;;;16.80;99.90;;;;;;5062475;28;20582;-78
2023/05/22 06:52:37;;;;;;;7.25;1.55;;;16.70;99.90;;;;;;5064268;28;20135;-77
2023/05/22 06:55:04;;;;;;;1.48;0.98;;;16.80;1.00;;;;;;5061686;28;20048;-79
2023/05/22 06:57:31;;;;;;;1.05;0.90;;;16.80;99.90;;;;;;5061802;28;20044;-78
2023/05/22 06:59:56;;;;;;;7.55;2.25;;;16.90;2.60;;;;;;5062425;28;20041;-78
2023/05/22 07:02:22;;;;;;;3.30;2.38;;;16.80;99.90;;;;;;5061931;28;20132;-78
2023/05/22 07:04:47;;;;;;;1.10;1.00;;;16.80;99.90;;;;;;5063040;28;20044;-78
2023/05/22 07:07:13;;;;;;;2.50;1.17;;;16.80;99.90;;;;;;5065796;28;20044;-78
2023/05/22 07:09:39;;;;;;;7.53;2.95;;;16.80;99.90;;;;;;5065351;28;20612;-79
2023/05/22 07:12:06;;;;;;;1.58;1.15;;;16.80;1.00;;;;;;5065713;28;20040;-79
2023/05/22 07:14:31;;;;;;;0.98;0.75;;;16.70;1.00;;;;;;5063880;28;20040;-79
2023/05/22 07:16:57;;;;;;;1.10;0.70;;;16.80;18.30;;;;;;5065174;28;20048;-79
2023/05/22 07:19:22;;;;;;;1.30;0.68;;;16.70;99.90;;;;;;5065326;28;20396;-78
2023/05/22 07:21:48;;;;;;;0.35;0.35;;;17.00;99.90;;;;;;5067478;28;20064;-79
2023/05/22 07:24:14;;;;;;;2.78;1.42;;;16.70;99.90;;;;;;5068857;28;20598;-79
2023/05/22 07:26:45;;;;;;;0.43;0.43;;;17.00;99.90;;;;;;5069331;28;20047;-79
2023/05/22 07:29:11;;;;;;;0.82;0.82;;;16.70;99.90;;;;;;5067829;28;20083;-79
2023/05/22 07:31:37;;;;;;;14.60;1.85;;;16.80;99.90;;;;;;5068881;28;20040;-79
2023/05/22 07:34:03;;;;;;;0.65;0.60;;;16.70;99.90;;;;;;5070955;28;20453;-79
2023/05/22 07:36:30;;;;;;;15.32;2.38;;;16.70;1.00;;;;;;5069546;28;20089;-79
2023/05/22 07:38:56;;;;;;;1.88;1.45;;;16.70;1.00;;;;;;5067339;28;20048;-79
2023/05/22 07:41:24;;;;;;;4.88;2.30;;;16.90;99.90;;;;;;5068518;28;20128;-79
2023/05/22 07:43:50;;;;;;;1.60;1.30;;;16.70;99.90;;;;;;5067967;28;20499;-78
2023/05/22 07:46:15;;;;;;;0.50;0.50;;;16.60;1.00;;;;;;5067968;28;20046;-77
2023/05/22 07:48:42;;;;;;;2.55;1.23;;;16.70;99.10;;;;;;5063703;28;20047;-78
2023/05/22 07:51:08;;;;;;;0.98;0.70;;;16.70;99.90;;;;;;5064646;28;20131;-77
2023/05/22 07:53:34;;;;;;;1.38;0.70;;;17.00;1.00;;;;;;5065049;28;20566;-78
2023/05/22 07:55:59;;;;;;;0.70;0.70;;;16.90;1.00;;;;;;5064774;28;20040;-79
2023/05/22 07:58:25;;;;;;;1.48;0.40;;;17.10;99.90;;;;;;5064942;28;20437;-79
2023/05/22 08:00:51;;;;;;;0.63;0.63;;;17.00;99.90;;;;;;5064904;28;20080;-78
2023/05/22 08:03:17;;;;;;;1.20;0.88;;;17.10;1.00;;;;;;5065346;28;20106;-78
2023/05/22 08:05:42;;;;;;;1.30;0.98;;;17.20;99.90;;;;;;5064817;28;20071;-79
2023/05/22 08:08:09;;;;;;;0.45;0.45;;;17.30;92.50;;;;;;5064615;28;20486;-78
2023/05/22 08:10:35;;;;;;;1.35;0.82;;;17.50;26.20;;;;;;5064522;28;20080;-78
2023/05/22 08:13:04;;;;;;;0.47;0.25;;;17.40;99.90;;;;;;5064389;28;20052;-79
2023/05/22 08:15:31;;;;;;;7.22;2.33;;;17.40;99.90;;;;;;5065790;28;20045;-79
2023/05/22 08:17:57;;;;;;;1.88;1.35;;;17.40;99.90;;;;;;5064645;28;20106;-78
2023/05/22 08:20:22;;;;;;;0.63;0.52;;;17.30;99.90;;;;;;5065153;28;20462;-79
2023/05/22 08:22:48;;;;;;;0.95;0.93;;;17.20;13.00;;;;;;5062704;28;20052;-79
2023/05/22 08:25:13;;;;;;;1.45;1.00;;;17.40;99.90;;;;;;5064528;28;20044;-79
2023/05/22 08:27:39;;;;;;;1.25;0.82;;;17.00;99.90;;;;;;5067668;28;20119;-79
2023/05/22 08:30:05;;;;;;;2.35;0.85;;;17.10;1.00;;;;;;5066565;28;20041;-79
2023/05/22 08:32:31;;;;;;;3.28;1.63;;;16.80;99.90;;;;;;5066170;28;20052;-79
2023/05/22 08:34:58;;;;;;;0.45;0.40;;;16.80;1.00;;;;;;5063883;28;20059;-79
2023/05/22 08:37:23;;;;;;;0.52;0.43;;;16.80;99.90;;;;;;5063443;28;20048;-79
2023/05/22 08:39:49;;;;;;;1.00;0.77;;;16.70;1.00;;;;;;5064244;28;20490;-79
2023/05/22 08:42:15;;;;;;;0.43;0.43;;;16.80;1.00;;;;;;5065857;28;20052;-79
2023/05/22 08:44:41;;;;;;;2.58;1.90;;;16.80;47.90;;;;;;5065764;28;20040;-78
2023/05/22 08:47:10;;;;;;;1.15;1.05;;;17.20;1.00;;;;;;5064358;28;20077;-78
2023/05/22 08:49:38;;;;;;;0.52;0.47;;;16.90;99.90;;;;;;5046460;28;20135;-78
2023/05/22 08:52:17;;;;;;;1.58;1.30;;;16.90;1.00;;;;;;5064193;28;20056;-79
2023/05/22 08:54:49;;;;;;;0.52;0.52;;;17.00;1.00;;;;;;5062067;28;20051;-78
2023/05/22 08:57:15;;;;;;;1.13;1.02;;;17.10;99.90;;;;;;5065079;28;20056;-78
2023/05/22 08:59:42;;;;;;;1.10;0.85;;;17.00;99.90;;;;;;5063405;28;20045;-79
2023/05/22 09:02:08;;;;;;;0.55;0.50;;;17.10;99.90;;;;;;5063291;28;20060;-79
2023/05/22 09:04:34;;;;;;;4.07;2.08;;;17.10;99.90;;;;;;5063776;28;20437;-78
2023/05/22 09:07:04;;;;;;;11.90;1.95;;;17.00;99.90;;;;;;5062993;28;20296;-79
2023/05/22 09:09:31;;;;;;;2.33;1.35;;;17.00;99.90;;;;;;5063152;28;20078;-79
2023/05/22 09:11:57;;;;;;;1.73;1.52;;;17.00;99.90;;;;;;5063154;28;20044;-79
2023/05/22 09:14:24;;;;;;;2.05;1.30;;;17.00;99.90;;;;;;5062878;28;20742;-78
2023/05/22 09:16:53;;;;;;;2.03;1.38;;;17.00;99.90;;;;;;5064819;28;20441;-78
2023/05/22 09:19:19;;;;;;;0.52;0.52;;;17.20;99.90;;;;;;5064984;28;20430;-79
2023/05/22 09:21:44;;;;;;;1.58;1.23;;;17.20;99.90;;;;;;5063076;28;20188;-79
2023/05/22 09:24:10;;;;;;;1.25;1.05;;;17.40;25.90;;;;;;5064888;28;20457;-79
2023/05/22 09:26:39;;;;;;;1.10;1.00;;;17.70;1.00;;;;;;5064045;28;20447;-79
2023/05/22 09:29:06;;;;;;;0.60;0.50;;;17.90;99.90;;;;;;5065557;28;20163;-79
2023/05/22 09:31:41;;;;;;;0.82;0.80;;;18.20;1.00;;;;;;5063301;28;20051;-78
2023/05/22 09:34:09;;;;;;;1.05;0.98;;;18.60;99.90;;;;;;5065062;28;20037;-79
2023/05/22 09:36:35;;;;;;;2.17;0.98;;;19.40;99.90;;;;;;5066388;28;20068;-79
2023/05/22 09:39:02;;;;;;;13.05;1.75;;;19.90;17.50;;;;;;5066283;28;20178;-79
2023/05/22 09:41:29;;;;;;;2.17;1.75;;;20.70;99.90;;;;;;5064790;28;20090;-79
2023/05/22 09:43:55;;;;;;;6.82;2.75;;;21.50;99.90;;;;;;5063760;28;20079;-78
2023/05/22 09:46:21;;;;;;;1.95;1.30;;;22.90;99.90;;;;;;5062905;28;20088;-79
2023/05/22 09:48:53;;;;;;;2.13;1.08;;;24.20;1.00;;;;;;5063388;28;20051;-79
2023/05/22 09:51:25;;;;;;;2.90;1.33;;;24.60;1.00;;;;;;5062898;28;20076;-79
2023/05/22 09:53:59;;;;;;;2.40;1.55;;;25.60;1.00;;;;;;5062125;28;20502;-78
2023/05/22 09:56:26;;;;;;;2.97;1.35;;;25.40;1.00;;;;;;5061991;28;20067;-79
2023/05/22 09:58:52;;;;;;;6.50;2.30;;;25.20;1.00;;;;;;5062816;28;20048;-78
2023/05/22 10:01:20;;;;;;;8.13;1.70;;;25.10;99.90;;;;;;5062244;28;20482;-78
2023/05/22 10:03:47;;;;;;;1.85;1.33;;;25.70;1.00;;;;;;5063400;28;20051;-79
2023/05/22 10:06:15;;;;;;;2.97;1.67;;;25.30;99.90;;;;;;5062958;28;20052;-79
2023/05/22 10:08:43;;;;;;;3.38;1.23;;;25.10;99.90;;;;;;5063009;28;20123;-79
2023/05/22 10:11:10;;;;;;;0.82;0.68;;;24.90;99.90;;;;;;5063151;28;20410;-78
2023/05/22 10:13:36;;;;;;;3.30;1.42;;;24.90;99.90;;;;;;5065598;28;20613;-79
2023/05/22 10:16:03;;;;;;;3.65;1.83;;;24.70;99.90;;;;;;5065260;28;20051;-79
2023/05/22 10:18:29;;;;;;;0.50;0.50;;;24.20;99.90;;;;;;5065607;28;20762;-79
2023/05/22 10:20:57;;;;;;;6.70;1.23;;;23.90;99.90;;;;;;5066699;28;20052;-79
2023/05/22 10:23:24;;;;;;;1.08;0.98;;;24.40;99.90;;;;;;5063828;28;20044;-79
2023/05/22 10:25:50;;;;;;;0.80;0.80;;;24.60;99.90;;;;;;5065891;28;20041;-79
2023/05/22 10:28:24;;;;;;;1.83;1.02;;;24.80;99.90;;;;;;5065962;28;20060;-79
2023/05/22 10:31:02;;;;;;;3.85;1.92;;;24.70;99.90;;;;;;5065988;28;20727;-79
2023/05/22 10:33:37;;;;;;;7.38;1.55;;;24.20;99.90;;;;;;5064204;28;20123;-78
2023/05/22 10:36:07;;;;;;;1.10;0.93;;;23.70;99.90;;;;;;5062662;28;20453;-78
2023/05/22 10:38:54;;;;;;;5.85;2.40;;;23.60;99.90;;;;;;5063625;28;20048;-79
2023/05/22 10:41:21;;;;;;;1.38;0.98;;;23.50;99.90;;;;;;5068626;28;20080;-79
2023/05/22 10:43:50;;;;;;;1.38;1.15;;;23.80;99.90;;;;;;5065895;28;20075;-79
2023/05/22 10:46:17;;;;;;;2.25;1.38;;;24.50;99.90;;;;;;5066621;28;20474;-77
2023/05/22 10:48:51;;;;;;;3.63;0.90;;;24.80;99.90;;;;;;5064207;28;20048;-78
2023/05/22 10:51:19;;;;;;;0.85;0.82;;;25.10;99.90;;;;;;5066121;28;20414;-78
2023/05/22 10:53:57;;;;;;;1.23;0.80;;;25.70;99.90;;;;;;5065868;28;20388;-79
2023/05/22 10:56:22;;;;;;;8.95;2.15;;;26.30;99.90;;;;;;5066691;28;20048;-79
2023/05/22 10:58:56;;;;;;;0.95;0.80;;;26.60;99.90;;;;;;5065970;28;20403;-78
2023/05/22 11:01:25;;;;;;;1.42;0.95;;;26.80;99.90;;;;;;5065422;28;20087;-79
2023/05/22 11:03:50;;;;;;;9.43;1.70;;;26.90;99.90;;;;;;5067188;28;20462;-80
2023/05/22 11:06:45;;;;;;;1.30;0.98;;;26.80;99.90;;;;;;5066628;28;20084;-79
2023/05/22 11:09:29;;;;;;;1.67;1.17;;;27.00;99.90;;;;;;5066313;28;20048;-79
2023/05/22 11:12:21;;;;;;;2.75;1.75;;;26.80;99.90;;;;;;5066502;28;20568;-78
2023/05/22 11:14:52;;;;;;;9.25;0.98;;;27.10;99.90;;;;;;5066166;28;20051;-78
2023/05/22 11:17:24;;;;;;;2.03;1.75;;;27.50;99.90;;;;;;5065987;28;20545;-78
2023/05/22 11:20:16;;;;;;;1.30;1.20;;;27.30;99.90;;;;;;5066473;28;20048;-79
2023/05/22 11:22:48;;;;;;;1.73;1.20;;;27.20;99.90;;;;;;5067053;28;20128;-79
2023/05/22 11:25:18;;;;;;;1.52;1.35;;;27.30;99.90;;;;;;5067450;28;20052;-79
2023/05/22 11:27:46;;;;;;;1.13;0.98;;;27.20;99.90;;;;;;5065852;28;20435;-79
2023/05/22 11:30:12;;;;;;;8.82;2.22;;;26.60;99.90;;;;;;5065126;28;20511;-78
2023/05/22 11:32:39;;;;;;;3.72;2.30;;;26.50;99.90;;;;;;5063806;28;20044;-79
2023/05/22 11:35:07;;;;;;;1.00;0.65;;;26.00;99.90;;;;;;5066271;28;20052;-79
2023/05/22 11:37:37;;;;;;;1.33;0.75;;;26.80;99.90;;;;;;5065438;28;20041;-79
2023/05/22 11:40:04;;;;;;;2.05;1.38;;;27.70;99.90;;;;;;5065077;28;20052;-78
2023/05/22 11:42:30;;;;;;;16.65;2.92;;;27.70;99.90;;;;;;5064554;28;20052;-78
2023/05/22 11:44:56;;;;;;;6.88;2.38;;;27.70;99.90;;;;;;5064654;28;20048;-78
2023/05/22 11:47:21;;;;;;;2.92;1.73;;;27.90;99.90;;;;;;5065292;28;20037;-78
2023/05/22 11:49:47;;;;;;;1.58;1.30;;;28.10;99.90;;;;;;5066107;28;20505;-78
2023/05/22 11:52:15;;;;;;;3.90;2.65;;;27.70;99.90;;;;;;5065140;28;20053;-78
2023/05/22 11:54:45;;;;;;;1.52;1.13;;;27.30;99.90;;;;;;5065766;28;20076;-78
2023/05/22 11:57:11;;;;;;;10.95;2.05;;;26.90;99.90;;;;;;5047612;28;20486;-78
2023/05/22 11:59:37;;;;;;;1.95;1.27;;;27.30;99.90;;;;;;5065413;28;20186;-79
2023/05/22 12:02:03;;;;;;;3.85;2.47;;;28.00;99.90;;;;;;5065630;28;20139;-79
2023/05/22 12:04:28;;;;;;;3.25;2.20;;;28.30;99.90;;;;;;5064952;28;20056;-78
2023/05/22 12:06:54;;;;;;;1.95;0.80;;;28.90;99.90;;;;;;5065323;28;20577;-79
2023/05/22 12:09:20;;;;;;;2.38;1.67;;;29.80;99.90;;;;;;5065960;28;20044;-79
2023/05/22 12:11:47;;;;;;;7.85;1.55;;;30.80;99.90;;;;;;5065537;28;20407;-79
2023/05/22 12:14:13;;;;;;;3.08;1.42;;;31.10;99.90;;;;;;5064178;28;20044;-79
2023/05/22 12:16:39;;;;;;;5.65;2.00;;;31.10;99.90;;;;;;5065824;28;20036;-79
2023/05/22 12:19:09;;;;;;;2.63;1.92;;;31.20;99.90;;;;;;5065693;28;20051;-79
2023/05/22 12:21:39;;;;;;;0.85;0.50;;;30.20;99.90;;;;;;5063935;28;20178;-79
2023/05/22 12:24:05;;;;;;;2.72;1.67;;;32.00;99.90;;;;;;5066351;28;20119;-79
2023/05/22 12:26:31;;;;;;;1.77;1.27;;;31.50;99.90;;;;;;5066186;28;20525;-78
2023/05/22 12:29:00;;;;;;;3.22;1.20;;;31.10;99.90;;;;;;5067376;28;20516;-79
2023/05/22 12:31:26;;;;;;;0.75;0.52;;;31.50;99.90;;;;;;5066529;28;20040;-78
2023/05/22 12:33:55;;;;;;;2.10;1.42;;;32.50;99.90;;;;;;5067657;28;20045;-79
2023/05/22 12:36:36;;;;;;;1.92;0.93;;;31.50;99.90;;;;;;5067137;28;20044;-77
2023/05/22 12:39:07;;;;;;;1.10;1.00;;;32.20;99.90;;;;;;5065790;28;20648;-79
2023/05/22 12:41:32;;;;;;;1.67;1.20;;;31.80;99.90;;;;;;5067425;28;20499;-79
2023/05/22 12:43:58;;;;;;;1.15;0.90;;;32.60;99.90;;;;;;5068193;28;20056;-79
2023/05/22 12:46:23;;;;;;;1.05;0.95;;;31.90;99.90;;;;;;5063654;28;20114;-78
2023/05/22 12:48:49;;;;;;;1.42;1.00;;;31.70;99.90;;;;;;5066113;28;20337;-79
2023/05/22 12:51:15;;;;;;;1.15;0.70;;;31.30;99.90;;;;;;5067939;28;20132;-79